AirNav   Everest Fuels
 
 483 users online  

PS85 River Hill Heliport
Bloomsburg, Pennsylvania, USA

GOING TO BLOOMSBURG?


FAA INFORMATION EFFECTIVE 07 NOVEMBER 2019

Location

FAA Identifier: PS85
Lat/Long: 40-59-10.3120N 076-25-44.8010W
40-59.171867N 076-25.746683W
40.9861978,-76.4291114
(estimated)
Elevation: 860 ft. / 262 m (estimated)
Variation: 11W (1990)
From city: 1 mile S of BLOOMSBURG, PA
Time zone: UTC -5 (UTC -4 during Daylight Saving Time)
Zip code: 17820

Heliport Operations

Heliport use: Private use. Permission required prior to landing
Activation date: 11/1993
Control tower: no
ARTCC: NEW YORK CENTER
FSS: WILLIAMSPORT FLIGHT SERVICE STATION
Attendance: UNATNDD
Wind indicator: lighted
Segmented circle: no
Lights: FOR PERIMETER LGTS CALL 570-784-2121.

Heliport Communications

WX AWOS-3 at 79PN (8 nm W): 118.075 (570-271-8192)
WX AWOS-3 at N79 (11 nm SW): 119.175 (570-672-0389)
WX AWOS-3 at ZER (17 nm S): 127.575 (570-544-2778)
WX AWOS-3 at HZL (20 nm E): 119.975 (570-459-4901)

Nearby radio navigation aids

VOR radial/distance  VOR name  Freq  Var
MIPr111/10.9MILTON VORTAC109.2009W
SEGr068/23.7SELINSGROVE VOR/DME110.4008W
FQMr153/26.3WILLIAMSPORT VOR/DME114.4009W
RAVr028/27.1RAVINE VORTAC114.6011W
LVZr253/37.6WILKES-BARRE VORTAC111.6010W

 
NDB name  Hdg/Dist  Freq  Var  ID
BELLGROVE020/33.532810WBZJ -... --.. .---

Heliport Services

Runway Information

Helipad H1

Dimensions: 60 x 60 ft. / 18 x 18 m
Surface: asphalt/concrete, in good condition
Runway edge lights: PERI
Latitude: 40-59.171867N
Longitude: 076-25.746683W
Elevation: 860.0 ft.
Traffic pattern: leftleft

Heliport Ownership and Management from official FAA records

Ownership: Privately-owned
Owner: PAUL R EYERLY III
114 RIVER HILL DR
BLOOMSBURG, PA 17815
Phone 570-784-2083
Manager: MICHAEL HUNTINGTON
3185 LACKAWANNA AVE
BLOOMSBURG, PA 17815
Phone 570-784-2121

Heliport Operational Statistics

Aircraft based on the field: 1
Helicopters: 1
    

Additional Remarks

FOR CD CTC WILKES-BARRE APCH AT 570-655-2084.

Instrument Procedures

There are no published instrument procedures at PS85.

Some nearby airports with instrument procedures:

N13 - Bloomsburg Municipal Airport (1 nm N)
8N8 - Danville Airport (10 nm W)
N79 - Northumberland County Airport (11 nm SW)
KZER - Schuylkill County/Joe Zerbey Airport (17 nm S)
KHZL - Hazleton Regional Airport (20 nm E)
 
Loc | Ops | Rwys | IFR | FBO | Links
Com | Nav | Svcs | Stats | Notes
Area around PS85 (River Hill Heliport)
 
Road maps at: MapQuest Bing Google
 
Aerial photo
No photo
 
Sectional chart

 
Airport distance calculator
Flying to River Hill Heliport? Find the distance to fly.

From to PS85

Sunrise and sunset
Times for 19-Nov-2019
 Local
(UTC-5)
 Zulu
(UTC)
Morning civil twilight06:2911:29
Sunrise06:5911:59
Sunset16:4321:43
Evening civil twilight17:1322:13

Current date and time
Zulu (UTC)  19-Nov-2019 08:47:05
Local (UTC-5)  19-Nov-2019 03:47:05
 
METAR
KHZL 
20nm E 
190836Z AUTO 00000KT 3SM BR OVC004 01/01 A2971 RMK AO2
KSEG 
22nm SW 
190753Z AUTO 00000KT 7SM SCT085 OVC110 02/01 A2974 RMK AO2 SLP075 T00220011
KIPT 
27nm NW 
190754Z AUTO 30004KT 10SM OVC016 03/01 A2972 RMK AO2 SLP069 T00330006
K22N 
32nm E 
190836Z AUTO 00000KT 10SM OVC026 01/01 A2972 RMK AO2
KMUI 
35nm S 
190756Z AUTO 24004KT 10SM SCT065 BKN080 OVC095 04/01 A2973 RMK AO2 SLP073 T00350014
KAVP 
38nm NE 
190754Z 00000KT 9SM OVC018 04/02 A2970 RMK AO2 SLP061 T00390017
TAF
KIPT 
27nm NW 
190558Z 1906/2006 28006KT P6SM FEW020 OVC027 FM190900 VRB02KT P6SM BKN015 OVC025 FM191600 27004KT P6SM BKN035
NOTAMs
Click for the latest NOTAMs
NOTAMs are issued by the DoD/FAA and will open in a separate window not controlled by AirNav.

 

 
 

Would you like to see your business listed on this page?

 If your business provides an interesting product or service to pilots, flight crews, aircraft, or users of the River Hill Heliport, you should consider listing it here.  To start the listing process, click on the button below
 
Add a business
 

Other Pages about River Hill Heliport

Update a link
 
Copyright © AirNav, LLC. All rights reserved. Privacy Policy  Contact